KBDL/BDL METAR and TAF weather

Enter ICAO airport designator
Station Type Date Time Source
KBDL METAR 2019/05/25 09:51 UTC NOAA

KBDL 250951Z 16004KT 10SM FEW150 SCT250 10/08 A3019 RMK AO2 SLP224 T01000083


Station Type Date Time Source
KBDL Decoded METAR 2019/05/25 09:51 UTC NOAA

BRADLEY INTERNATIONAL AIRPORT , CT, United States (KBDL) 41-56N 072-41W 60M
May 25, 2019 - 05:51 AM EDT / 2019.05.25 0951 UTC
Wind: from the SSE (160 degrees) at 5 MPH (4 KT):0
Visibility: 10 mile(s):0
Sky conditions: partly cloudy
Temperature: 50.0 F (10.0 C)
Dew Point: 46.9 F (8.3 C)
Relative Humidity: 89%
Pressure (altimeter): 30.19 in. Hg (1022 hPa)
ob: KBDL 250951Z 16004KT 10SM FEW150 SCT250 10/08 A3019 RMK AO2 SLP224 T01000083
cycle: 10

Station Type Date Time Source
KBDL TAF 2019/05/25 09:12 UTC NOAA

TAF
AMD KBDL 250911Z 2509/2612 00000KT P6SM FEW250
FM251600 20006KT P6SM SCT250
FM252000 19011KT P6SM BKN150
FM260200 18012G20KT P6SM VCSH BKN045
FM260500 19009KT 6SM -SHRA OVC015
FM260800 19008KT P6SM VCSH OVC010
FM261000 20007KT P6SM BKN010

Example: see airport list